Canovanas, PR

5:09 PM AST on September 30, 2014 (GMT -0400)
Ciudad Jardin | Change Station
CLOSE
Current Station
Personal Weather Station
Location: Carolina, PR
Elevation: 10 ft
Nearby Weather Stations

Elev 10 ft 18.37 °N, 65.93 °W | Updated 7 minutes ago

Mostly Cloudy
Mostly Cloudy
92.3 °F
Feels Like 107 °F
N
1.0
Wind Variable Wind from SE
Gusts 8.0 mph

Today
High -- | Low -- °F
--% Chance of Precip.
Yesterday
High -- | Low -- °F
Precip. -- in
6:13 AM 6:12 PM
Waxing Crescent, 40% visible
Pressure 29.94 in
Visibility 8.0 miles
Clouds Scattered Clouds 4100 ft
Scattered Clouds 6000 ft
Mostly Cloudy 11000 ft
Heat Index 107 °F
Dew Point 77 °F
Humidity 62%
Rainfall 0.00 in
Snow Depth Not available.
UV 1 out of 12
Pollen Not available.
Air Quality Not available.
Flu Activity Not available.
METAR TJSJ 302056Z 16007KT 8SM SCT041 SCT060 BKN110 33/24 A2994 RMK AO2 SLP136 HZ ALQDS T03280239 55000

More Conditions Fewer Conditions

Pressure 29.94 in
Visibility 8.0 miles
Clouds Scattered Clouds 4100 ft
Scattered Clouds 6000 ft
Mostly Cloudy 11000 ft
Heat Index 107 °F
Dew Point 77 °F
Humidity 62%
Rainfall 0.00 in
Snow Depth Not available.
UV 1 out of 12
Pollen Not available.
Air Quality Not available.
Flu Activity Not available.
METAR TJSJ 302056Z 16007KT 8SM SCT041 SCT060 BKN110 33/24 A2994 RMK AO2 SLP136 HZ ALQDS T03280239 55000

More Conditions Fewer Conditions

10-Day Weather Forecast

Almanac

Astronomy

Sep. 30, 2014 Rise Set
Actual Time 6:13 AM AST 6:12 PM AST
Civil Twilight 5:52 AM AST 6:34 PM AST
Nautical Twilight 5:26 AM AST 7:00 PM AST
Astronomical Twilight 5:01 AM AST 7:25 PM AST
Moon 11:41 AM AST 11:15 PM AST
Length of Visible Light 12h 42m
Length of Day
11h 59m
Tomorrow will be 1m 2s shorter.
Waxing Crescent, 40% of the Moon is Illuminated
Today
Waxing Crescent
Oct 1
First Quarter
Oct 8
Full
Oct 15
Last Quarter
Oct 23
New

Community

WunderPhotos

Upload Photos

1,757,749 photos uploaded!

Nearby

Snow Depth

Station Depth Elevation
No new snow has been reported.

Earthquake Activity

City Distance Mag. Time & Date
No recent earthquake activity has been reported nearby.
Minimum magnitude displayed is 2.5.

Coastal Water Temperatures

Place Temperature
San Juan, PR 86.0 °F
Mayaguez, PR 86.0 °F
Esperanza, PR 86.0 °F

Nearby Weather Stations